createdAt,value
2024-02-24T00:01:58.502Z,99.91
2024-02-24T00:04:25.841Z,100.00
2024-02-24T00:06:52.593Z,100.00
2024-02-24T00:09:19.288Z,100.00
2024-02-24T00:11:45.929Z,100.00
2024-02-24T00:14:12.720Z,100.00
2024-02-24T00:16:39.356Z,100.00
2024-02-24T00:19:06.809Z,100.00
2024-02-24T00:21:33.789Z,100.00
2024-02-24T00:24:00.476Z,100.00
2024-02-24T00:26:27.257Z,100.00
2024-02-24T00:28:53.885Z,100.00
2024-02-24T00:31:20.550Z,100.00
2024-02-24T00:33:47.161Z,99.86
2024-02-24T00:36:13.775Z,100.00
2024-02-24T00:38:40.479Z,99.88
2024-02-24T00:41:07.148Z,99.50
2024-02-24T00:43:34.057Z,99.58
2024-02-24T00:46:01.463Z,100.00
2024-02-24T00:48:30.142Z,99.80
2024-02-24T00:50:56.906Z,100.00
2024-02-24T00:53:23.696Z,100.00
2024-02-24T00:55:50.390Z,100.00
2024-02-24T00:58:16.954Z,100.00
2024-02-24T01:00:43.613Z,100.00
2024-02-24T01:03:10.190Z,100.00
2024-02-24T01:05:37.308Z,100.00
2024-02-24T01:08:04.368Z,100.00
2024-02-24T01:10:31.036Z,100.00
2024-02-24T01:12:57.635Z,100.00
2024-02-24T01:15:25.623Z,100.00
2024-02-24T01:17:57.258Z,99.99
2024-02-24T01:20:25.845Z,100.00
2024-02-24T01:22:58.777Z,100.00
2024-02-24T01:25:25.435Z,100.00
2024-02-24T01:27:52.058Z,100.00
2024-02-24T01:30:18.698Z,100.00
2024-02-24T01:32:45.469Z,100.00
2024-02-24T01:35:12.299Z,100.00
2024-02-24T01:37:39.018Z,100.00
2024-02-24T01:40:09.468Z,100.00
2024-02-24T01:42:36.140Z,100.00
2024-02-24T01:45:03.254Z,100.00
2024-02-24T01:47:30.364Z,100.00
2024-02-24T01:49:57.556Z,100.00
2024-02-24T01:52:25.356Z,100.00
2024-02-24T01:54:56.677Z,100.00
2024-02-24T01:57:25.863Z,100.00
2024-02-24T01:59:52.551Z,100.00
2024-02-24T02:02:19.222Z,100.00
2024-02-24T02:04:45.842Z,100.00
2024-02-24T02:07:12.552Z,100.00
2024-02-24T02:09:59.005Z,100.00
2024-02-24T02:12:26.621Z,100.00
2024-02-24T02:14:53.317Z,100.00
2024-02-24T02:17:20.668Z,100.00
2024-02-24T02:19:47.642Z,100.00
2024-02-24T02:22:18.784Z,100.00
2024-02-24T02:24:46.770Z,100.00
2024-02-24T02:27:13.466Z,100.00
2024-02-24T02:29:40.204Z,100.00
2024-02-24T02:32:09.163Z,100.00
2024-02-24T02:34:36.160Z,100.00
2024-02-24T02:37:02.853Z,100.00
2024-02-24T02:39:29.604Z,100.00
2024-02-24T02:41:56.143Z,100.00
2024-02-24T02:44:24.502Z,100.00
2024-02-24T02:46:51.704Z,100.00
2024-02-24T02:49:18.701Z,100.00
2024-02-24T02:51:46.045Z,100.00
2024-02-24T02:54:12.646Z,100.00
2024-02-24T02:56:39.240Z,100.00
2024-02-24T02:59:05.865Z,100.00
2024-02-24T03:01:32.547Z,100.00
2024-02-24T03:03:59.234Z,100.00
2024-02-24T03:06:26.378Z,100.00
2024-02-24T03:08:56.750Z,100.00
2024-02-24T03:15:37.123Z,100.00
2024-02-24T03:18:04.227Z,100.00
2024-02-24T03:20:30.916Z,100.00
2024-02-24T03:22:57.586Z,100.00
2024-02-24T03:25:24.288Z,100.00
2024-02-24T03:27:50.841Z,100.00
2024-02-24T03:30:17.727Z,100.00
2024-02-24T03:32:50.189Z,100.00
2024-02-24T03:35:16.909Z,100.00
2024-02-24T03:37:43.766Z,100.00
2024-02-24T03:40:12.477Z,100.00
2024-02-24T03:42:39.043Z,100.00
2024-02-24T03:45:06.390Z,100.00
2024-02-24T03:47:33.079Z,100.00
2024-02-24T03:49:59.769Z,100.00
2024-02-24T03:52:26.339Z,100.00
2024-02-24T03:54:52.999Z,100.00
2024-02-24T03:57:19.572Z,100.00
2024-02-24T03:59:46.169Z,100.00
2024-02-24T04:02:12.838Z,100.00
2024-02-24T04:04:39.438Z,100.00
2024-02-24T04:07:06.771Z,100.00
2024-02-24T04:09:33.324Z,100.00
2024-02-24T04:12:00.037Z,100.00
2024-02-24T04:14:28.055Z,100.00
2024-02-24T04:16:55.365Z,100.00
2024-02-24T04:19:22.284Z,100.00
2024-02-24T04:21:48.985Z,100.00
2024-02-24T04:24:15.608Z,100.00
2024-02-24T04:26:42.975Z,100.00
2024-02-24T04:29:09.584Z,100.00
2024-02-24T04:31:36.165Z,100.00
2024-02-24T04:34:02.840Z,100.00
2024-02-24T04:36:29.570Z,100.00
2024-02-24T04:38:56.185Z,100.00
2024-02-24T04:41:22.912Z,100.00
2024-02-24T04:43:49.460Z,100.00
2024-02-24T04:46:15.995Z,100.00
2024-02-24T04:48:43.778Z,100.00
2024-02-24T04:51:10.570Z,100.00
2024-02-24T04:53:37.193Z,100.00
2024-02-24T04:56:04.002Z,100.00
2024-02-24T04:58:30.622Z,100.00
2024-02-24T05:00:57.350Z,100.00
2024-02-24T05:03:24.190Z,100.00
2024-02-24T05:05:50.785Z,100.00
2024-02-24T05:08:17.521Z,100.00
2024-02-24T05:10:44.160Z,100.00
2024-02-24T05:13:10.753Z,100.00
2024-02-24T05:15:37.420Z,100.00
2024-02-24T05:18:04.547Z,100.00
2024-02-24T05:20:32.307Z,100.00
2024-02-24T05:22:58.954Z,100.00
2024-02-24T05:25:25.553Z,100.00
2024-02-24T05:27:52.039Z,100.00
2024-02-24T05:30:18.528Z,100.00
2024-02-24T05:32:45.270Z,100.00
2024-02-24T05:35:12.194Z,100.00
2024-02-24T05:37:38.724Z,100.00
2024-02-24T05:40:05.829Z,100.00
2024-02-24T05:42:32.386Z,100.00
2024-02-24T05:44:59.035Z,100.00
2024-02-24T05:47:25.875Z,100.00
2024-02-24T05:49:52.450Z,100.00
2024-02-24T05:52:19.531Z,100.00
2024-02-24T05:54:46.178Z,100.00
2024-02-24T05:57:12.714Z,100.00
2024-02-24T05:59:39.354Z,100.00
2024-02-24T06:02:05.840Z,100.00
2024-02-24T06:04:32.609Z,100.00
2024-02-24T06:06:59.264Z,100.00
2024-02-24T06:09:26.696Z,100.00
2024-02-24T06:11:53.510Z,100.00
2024-02-24T06:14:20.306Z,100.00
2024-02-24T06:16:46.850Z,100.00
2024-02-24T06:19:14.612Z,100.00
2024-02-24T06:21:41.355Z,100.00
2024-02-24T06:24:07.995Z,100.00
2024-02-24T06:26:34.550Z,100.00
2024-02-24T06:29:01.219Z,100.00
2024-02-24T06:31:27.912Z,100.00
2024-02-24T06:33:55.275Z,100.00
2024-02-24T06:36:22.029Z,100.00
2024-02-24T06:38:50.001Z,100.00
2024-02-24T06:41:19.150Z,100.00
2024-02-24T06:43:46.304Z,100.00
2024-02-24T06:46:12.852Z,99.51
2024-02-24T06:48:39.463Z,99.39
2024-02-24T06:51:06.067Z,99.72
2024-02-24T06:53:32.634Z,99.34
2024-02-24T06:56:05.715Z,100.00
2024-02-24T06:58:32.970Z,98.53
2024-02-24T07:00:59.543Z,99.23
2024-02-24T07:03:26.287Z,96.76
2024-02-24T07:05:53.001Z,97.21
2024-02-24T07:08:19.578Z,98.70
2024-02-24T07:10:46.396Z,99.19
2024-02-24T07:13:12.962Z,97.23
2024-02-24T07:15:39.896Z,96.05
2024-02-24T07:18:06.844Z,95.86
2024-02-24T07:20:33.551Z,95.86
2024-02-24T07:23:00.220Z,95.24
2024-02-24T07:25:26.759Z,95.33
2024-02-24T07:27:53.320Z,94.45
2024-02-24T07:30:19.950Z,94.41
2024-02-24T07:32:47.804Z,94.06
2024-02-24T07:35:14.552Z,93.41
2024-02-24T07:37:41.116Z,93.52
2024-02-24T07:40:08.310Z,94.55
2024-02-24T07:42:34.915Z,94.76
2024-02-24T07:45:02.204Z,94.78
2024-02-24T07:47:28.919Z,92.84
2024-02-24T07:49:55.593Z,93.22
2024-02-24T07:52:22.165Z,92.79
2024-02-24T07:54:48.681Z,91.70
2024-02-24T07:57:15.407Z,89.77
2024-02-24T07:59:42.229Z,90.82
2024-02-24T08:02:08.839Z,91.78
2024-02-24T08:04:35.524Z,92.26
2024-02-24T08:07:02.406Z,89.56
2024-02-24T08:09:29.111Z,89.84
2024-02-24T08:11:55.846Z,88.50
2024-02-24T08:14:22.531Z,87.86
2024-02-24T08:16:49.093Z,90.51
2024-02-24T08:19:16.580Z,88.45
2024-02-24T08:21:43.113Z,87.35
2024-02-24T08:24:10.364Z,85.60
2024-02-24T08:26:40.681Z,87.03
2024-02-24T08:29:09.154Z,87.18
2024-02-24T08:31:36.397Z,85.08
2024-02-24T08:34:03.489Z,85.58
2024-02-24T08:36:30.280Z,84.89
2024-02-24T08:39:01.092Z,83.05
2024-02-24T08:41:28.684Z,84.94
2024-02-24T08:43:55.257Z,84.37
2024-02-24T08:46:21.789Z,84.51
2024-02-24T08:48:48.371Z,84.71
2024-02-24T08:51:14.929Z,82.05
2024-02-24T08:53:41.701Z,83.77
2024-02-24T08:56:08.254Z,82.54
2024-02-24T08:58:34.863Z,83.79
2024-02-24T09:01:01.986Z,83.50
2024-02-24T09:03:28.562Z,84.33
2024-02-24T09:05:55.176Z,86.38
2024-02-24T09:08:21.796Z,85.33
2024-02-24T09:10:48.842Z,84.68
2024-02-24T09:14:50.130Z,84.09
2024-02-24T09:17:17.257Z,85.87
2024-02-24T09:19:44.436Z,86.26
2024-02-24T09:24:59.114Z,84.22
2024-02-24T09:27:25.938Z,81.77
2024-02-24T09:29:52.682Z,83.74
2024-02-24T09:32:19.793Z,84.70
2024-02-24T09:34:46.520Z,84.56
2024-02-24T09:37:13.294Z,81.67
2024-02-24T09:39:44.060Z,82.27
2024-02-24T09:42:12.141Z,82.71
2024-02-24T09:44:39.979Z,81.26
2024-02-24T09:47:07.101Z,81.50
2024-02-24T09:49:33.897Z,81.07
2024-02-24T09:52:00.993Z,79.03
2024-02-24T09:54:29.277Z,77.82
2024-02-24T09:56:57.523Z,74.42
2024-02-24T09:59:26.114Z,73.99
2024-02-24T10:01:52.961Z,74.33
2024-02-24T10:04:20.078Z,72.44
2024-02-24T10:06:47.056Z,71.43
2024-02-24T10:09:13.829Z,71.50
2024-02-24T10:11:41.337Z,69.91
2024-02-24T10:14:08.961Z,71.04
2024-02-24T10:16:39.432Z,70.59
2024-02-24T10:19:07.239Z,71.23
2024-02-24T10:21:35.360Z,72.29
2024-02-24T10:24:03.936Z,73.35
2024-02-24T10:26:31.011Z,70.86
2024-02-24T10:28:58.016Z,70.11
2024-02-24T10:31:25.178Z,71.66
2024-02-24T10:33:53.988Z,70.73
2024-02-24T10:36:20.802Z,69.24
2024-02-24T10:38:55.494Z,69.65
2024-02-24T10:41:26.793Z,68.69
2024-02-24T10:44:06.084Z,66.09
2024-02-24T10:46:44.417Z,68.00
2024-02-24T10:49:12.262Z,66.04
2024-02-24T10:51:39.675Z,66.42
2024-02-24T10:54:13.689Z,66.81
2024-02-24T10:56:41.085Z,68.06
2024-02-24T10:59:09.144Z,68.15
2024-02-24T11:01:44.576Z,66.37
2024-02-24T11:04:13.150Z,66.80
2024-02-24T11:06:47.246Z,66.68
2024-02-24T11:09:16.050Z,66.39
2024-02-24T11:11:43.880Z,66.11
2024-02-24T11:14:10.796Z,66.26
2024-02-24T11:16:39.865Z,65.46
2024-02-24T11:19:12.719Z,65.79
2024-02-24T11:22:03.449Z,64.79
2024-02-24T11:24:32.005Z,62.92
2024-02-24T11:26:58.756Z,63.60
2024-02-24T11:29:30.742Z,63.23
2024-02-24T11:32:15.457Z,64.28
2024-02-24T11:34:46.798Z,63.85
2024-02-24T11:37:18.405Z,64.84
2024-02-24T11:39:48.055Z,63.83
2024-02-24T11:42:15.255Z,63.25
2024-02-24T11:44:47.366Z,64.35
2024-02-24T11:47:18.623Z,63.94
2024-02-24T11:49:46.694Z,63.86
2024-02-24T11:52:14.656Z,63.15
2024-02-24T11:54:41.668Z,62.37
2024-02-24T11:57:08.654Z,63.48
2024-02-24T11:59:38.372Z,62.91
2024-02-24T12:02:05.618Z,62.36
2024-02-24T12:04:32.248Z,62.69
2024-02-24T12:06:59.978Z,61.00
2024-02-24T12:09:26.695Z,62.01
2024-02-24T12:11:53.597Z,61.63
2024-02-24T12:14:20.657Z,60.93
2024-02-24T12:16:47.816Z,61.47
2024-02-24T12:19:14.724Z,60.20
2024-02-24T12:21:42.457Z,59.23
2024-02-24T12:24:10.251Z,59.51
2024-02-24T12:26:36.884Z,59.22
2024-02-24T12:29:05.365Z,59.63
2024-02-24T12:31:32.073Z,58.85
2024-02-24T12:33:59.220Z,58.06
2024-02-24T12:36:26.380Z,58.03
2024-02-24T12:38:53.046Z,57.68
2024-02-24T12:41:19.915Z,57.68
2024-02-24T12:43:46.490Z,56.69
2024-02-24T12:46:13.086Z,57.18
2024-02-24T12:48:43.447Z,56.92
2024-02-24T12:51:12.021Z,53.55
2024-02-24T12:53:38.635Z,56.00
2024-02-24T12:56:05.359Z,55.76
2024-02-24T12:58:32.035Z,54.90
2024-02-24T13:00:59.089Z,54.59
2024-02-24T13:03:25.953Z,53.56
2024-02-24T13:05:52.738Z,54.30
2024-02-24T13:08:19.655Z,53.77
2024-02-24T13:10:46.608Z,53.60
2024-02-24T13:13:13.403Z,55.83
2024-02-24T13:15:40.061Z,54.00
2024-02-24T13:18:07.127Z,55.73
2024-02-24T13:20:34.000Z,54.62
2024-02-24T13:23:00.672Z,55.11
2024-02-24T13:25:27.823Z,52.84
2024-02-24T13:27:54.630Z,54.90
2024-02-24T13:30:22.693Z,52.23
2024-02-24T13:32:50.146Z,52.35
2024-02-24T13:35:17.129Z,51.58
2024-02-24T13:37:43.880Z,55.21
2024-02-24T13:40:11.086Z,52.89
2024-02-24T13:42:37.856Z,52.60
2024-02-24T13:45:07.238Z,53.51
2024-02-24T13:47:34.790Z,54.12
2024-02-24T13:50:01.645Z,53.45
2024-02-24T13:52:29.146Z,55.68
2024-02-24T13:54:55.704Z,54.48
2024-02-24T13:57:22.515Z,55.21
2024-02-24T13:59:49.547Z,53.44
2024-02-24T14:02:16.280Z,54.68
2024-02-24T14:04:42.891Z,55.40
2024-02-24T14:07:10.512Z,55.78
2024-02-24T14:09:37.441Z,56.69
2024-02-24T14:12:05.270Z,57.64
2024-02-24T14:14:32.980Z,57.38
2024-02-24T14:16:59.617Z,57.33
2024-02-24T14:19:26.261Z,57.35
2024-02-24T14:21:53.112Z,56.89
2024-02-24T14:24:19.634Z,56.74
2024-02-24T14:26:46.483Z,57.23
2024-02-24T14:29:13.779Z,56.50
2024-02-24T14:31:40.485Z,56.63
2024-02-24T14:34:06.968Z,59.30
2024-02-24T14:36:33.641Z,56.43
2024-02-24T14:39:00.555Z,57.05
2024-02-24T14:41:28.003Z,56.98
2024-02-24T14:43:54.754Z,57.72
2024-02-24T14:46:21.354Z,56.97
2024-02-24T14:48:49.563Z,55.09
2024-02-24T14:51:17.989Z,56.59
2024-02-24T14:53:44.875Z,56.93
2024-02-24T14:56:11.545Z,58.48
2024-02-24T14:58:39.364Z,56.66
2024-02-24T15:01:05.953Z,58.19
2024-02-24T15:06:04.445Z,57.24
2024-02-24T15:08:31.872Z,57.85
2024-02-24T15:10:58.501Z,57.35
2024-02-24T15:13:29.395Z,59.08
2024-02-24T15:15:58.558Z,58.29
2024-02-24T15:18:25.351Z,58.05
2024-02-24T15:20:52.058Z,59.27
2024-02-24T15:23:18.734Z,59.39
2024-02-24T15:25:47.751Z,59.90
2024-02-24T15:28:14.932Z,59.23
2024-02-24T15:30:41.855Z,60.96
2024-02-24T15:33:08.647Z,61.38
2024-02-24T15:35:35.375Z,62.25
2024-02-24T15:38:01.950Z,63.36
2024-02-24T15:40:30.812Z,63.63
2024-02-24T15:42:59.852Z,64.04
2024-02-24T15:45:26.468Z,64.76
2024-02-24T15:47:53.196Z,65.58
2024-02-24T15:50:23.312Z,66.14
2024-02-24T15:52:50.282Z,66.76
2024-02-24T15:55:16.946Z,66.30
2024-02-24T15:57:47.029Z,67.22
2024-02-24T16:00:13.901Z,68.03
2024-02-24T16:02:42.804Z,69.30
2024-02-24T16:05:10.226Z,69.82
2024-02-24T16:07:36.879Z,71.42
2024-02-24T16:10:03.805Z,70.87
2024-02-24T16:12:30.334Z,71.41
2024-02-24T16:14:57.056Z,72.30
2024-02-24T16:17:23.731Z,72.41
2024-02-24T16:19:51.127Z,72.35
2024-02-24T16:22:17.886Z,73.08
2024-02-24T16:24:44.634Z,72.86
2024-02-24T16:27:11.320Z,71.89
2024-02-24T16:29:38.091Z,71.78
2024-02-24T16:32:07.503Z,72.05
2024-02-24T16:34:36.610Z,73.05
2024-02-24T16:37:03.678Z,73.96
2024-02-24T16:39:33.220Z,73.93
2024-02-24T16:42:00.306Z,75.56
2024-02-24T16:44:28.011Z,75.65
2024-02-24T16:46:55.883Z,75.16
2024-02-24T16:49:23.007Z,75.53
2024-02-24T16:51:52.832Z,75.60
2024-02-24T16:54:19.484Z,76.67
2024-02-24T16:56:46.125Z,76.84
2024-02-24T16:59:12.849Z,77.56
2024-02-24T17:01:39.480Z,77.86
2024-02-24T17:04:06.164Z,78.81
2024-02-24T17:06:32.968Z,79.01
2024-02-24T17:08:59.702Z,78.41
2024-02-24T17:11:28.481Z,78.70
2024-02-24T17:13:55.321Z,78.67
2024-02-24T17:16:21.869Z,79.13
2024-02-24T17:18:48.556Z,79.71
2024-02-24T17:21:15.333Z,79.87
2024-02-24T17:23:43.014Z,80.14
2024-02-24T17:26:10.147Z,80.09
2024-02-24T17:28:36.681Z,81.28
2024-02-24T17:31:03.711Z,81.58
2024-02-24T17:33:30.327Z,81.31
2024-02-24T17:35:57.019Z,81.66
2024-02-24T17:38:25.223Z,82.02
2024-02-24T17:40:51.866Z,82.30
2024-02-24T17:43:18.407Z,82.00
2024-02-24T17:45:44.968Z,82.10
2024-02-24T17:48:11.739Z,82.83
2024-02-24T17:50:38.383Z,83.50
2024-02-24T17:53:04.912Z,84.63
2024-02-24T17:55:31.623Z,83.85
2024-02-24T17:57:58.097Z,84.23
2024-02-24T18:00:24.684Z,84.76
2024-02-24T18:02:51.216Z,84.97
2024-02-24T18:05:18.861Z,85.18
2024-02-24T18:07:45.637Z,85.60
2024-02-24T18:10:13.454Z,85.77
2024-02-24T18:12:40.198Z,85.98
2024-02-24T18:15:07.598Z,85.98
2024-02-24T18:17:34.428Z,87.23
2024-02-24T18:20:01.121Z,87.02
2024-02-24T18:22:28.041Z,86.97
2024-02-24T18:24:54.539Z,86.52
2024-02-24T18:27:21.259Z,86.49
2024-02-24T18:29:47.863Z,86.80
2024-02-24T18:32:14.444Z,87.07
2024-02-24T18:34:41.204Z,86.77
2024-02-24T18:37:07.975Z,86.50
2024-02-24T18:39:35.326Z,86.54
2024-02-24T18:42:03.138Z,86.38
2024-02-24T18:44:29.841Z,86.73
2024-02-24T18:46:57.429Z,87.10
2024-02-24T18:49:24.297Z,87.28
2024-02-24T18:51:50.890Z,87.04
2024-02-24T18:54:17.422Z,87.38
2024-02-24T18:56:44.002Z,87.72
2024-02-24T18:59:10.599Z,88.09
2024-02-24T19:01:37.231Z,88.42
2024-02-24T19:04:04.372Z,88.84
2024-02-24T19:06:31.037Z,89.15
2024-02-24T19:08:57.716Z,88.96
2024-02-24T19:11:24.437Z,89.45
2024-02-24T19:13:51.013Z,89.46
2024-02-24T19:16:17.593Z,89.63
2024-02-24T19:18:44.332Z,89.67
2024-02-24T19:21:11.105Z,90.11
2024-02-24T19:23:38.865Z,89.21
2024-02-24T19:26:05.763Z,90.32
2024-02-24T19:28:32.482Z,90.76
2024-02-24T19:30:59.692Z,89.20
2024-02-24T19:33:26.515Z,89.38
2024-02-24T19:35:53.160Z,88.68
2024-02-24T19:38:19.994Z,89.45
2024-02-24T19:40:47.790Z,89.30
2024-02-24T19:43:14.388Z,89.33
2024-02-24T19:45:42.584Z,88.60
2024-02-24T19:48:09.642Z,88.74
2024-02-24T19:50:36.325Z,89.84
2024-02-24T19:53:02.972Z,89.79
2024-02-24T19:55:29.538Z,89.78
2024-02-24T19:57:56.073Z,89.65
2024-02-24T20:00:22.807Z,89.38
2024-02-24T20:02:49.325Z,89.31
2024-02-24T20:05:19.942Z,89.49
2024-02-24T20:07:46.750Z,89.19
2024-02-24T20:10:13.778Z,88.11
2024-02-24T20:12:40.386Z,88.38
2024-02-24T20:15:07.622Z,89.11
2024-02-24T20:17:34.421Z,89.53
2024-02-24T20:20:01.228Z,89.37
2024-02-24T20:22:28.035Z,89.41
2024-02-24T20:24:54.587Z,90.41
2024-02-24T20:27:21.132Z,89.98
2024-02-24T20:29:47.744Z,90.81
2024-02-24T20:32:14.770Z,91.22
2024-02-24T20:34:41.584Z,91.37
2024-02-24T20:37:08.287Z,91.29
2024-02-24T20:39:34.775Z,91.32
2024-02-24T20:42:01.519Z,91.87
2024-02-24T20:44:28.111Z,91.56
2024-02-24T20:46:54.650Z,91.33
2024-02-24T20:49:25.843Z,90.93
2024-02-24T20:51:58.421Z,91.36
2024-02-24T20:54:26.781Z,91.48
2024-02-24T20:56:53.434Z,92.98
2024-02-24T20:59:20.000Z,92.46
2024-02-24T21:01:46.653Z,93.14
2024-02-24T21:04:13.244Z,92.63
2024-02-24T21:06:43.416Z,92.77
2024-02-24T21:09:10.851Z,92.60
2024-02-24T21:11:37.514Z,93.51
2024-02-24T21:14:04.082Z,93.50
2024-02-24T21:16:30.598Z,92.97
2024-02-24T21:18:57.562Z,92.89
2024-02-24T21:21:26.098Z,92.78
2024-02-24T21:23:55.386Z,93.52
2024-02-24T21:26:23.977Z,93.37
2024-02-24T21:28:52.130Z,93.30
2024-02-24T21:31:19.831Z,93.59
2024-02-24T21:33:46.706Z,92.88
2024-02-24T21:36:13.593Z,93.66
2024-02-24T21:38:40.173Z,93.55
2024-02-24T21:41:06.730Z,93.71
2024-02-24T21:43:33.333Z,93.45
2024-02-24T21:46:00.177Z,93.35
2024-02-24T21:48:27.629Z,93.40
2024-02-24T21:50:55.365Z,93.50
2024-02-24T21:53:21.943Z,93.99
2024-02-24T21:55:48.439Z,93.94
2024-02-24T21:58:15.092Z,93.23
2024-02-24T22:00:41.583Z,93.82
2024-02-24T22:03:08.396Z,94.00
2024-02-24T22:05:35.075Z,94.30
2024-02-24T22:08:01.887Z,95.24
2024-02-24T22:10:29.304Z,94.69
2024-02-24T22:12:56.036Z,94.18
2024-02-24T22:15:23.820Z,94.62
2024-02-24T22:17:50.419Z,94.76
2024-02-24T22:20:17.113Z,95.57
2024-02-24T22:22:43.759Z,95.23
2024-02-24T22:25:10.320Z,95.14
2024-02-24T22:27:38.547Z,95.29
2024-02-24T22:30:13.320Z,95.04
2024-02-24T22:32:44.101Z,95.82
2024-02-24T22:35:11.132Z,95.84
2024-02-24T22:37:38.332Z,96.33
2024-02-24T22:40:05.639Z,95.82
2024-02-24T22:42:34.660Z,95.70
2024-02-24T22:45:03.028Z,95.60
2024-02-24T22:47:30.136Z,96.31
2024-02-24T22:49:56.883Z,96.05
2024-02-24T22:52:23.553Z,95.93
2024-02-24T22:54:50.599Z,95.73
2024-02-24T22:57:17.871Z,95.79
2024-02-24T22:59:44.556Z,96.26
2024-02-24T23:17:53.593Z,100.00
2024-02-24T23:20:20.368Z,100.00
2024-02-24T23:22:46.938Z,100.00
2024-02-24T23:25:13.975Z,99.98
2024-02-24T23:27:40.607Z,100.00
2024-02-24T23:30:08.147Z,99.43
2024-02-24T23:32:34.938Z,98.89
2024-02-24T23:35:01.582Z,98.66
2024-02-24T23:37:28.235Z,99.34
2024-02-24T23:39:54.810Z,99.18
2024-02-24T23:42:21.479Z,98.09
2024-02-24T23:44:48.098Z,98.40
2024-02-24T23:47:14.988Z,98.47
2024-02-24T23:49:42.628Z,98.38
2024-02-24T23:52:09.271Z,98.27
2024-02-24T23:54:35.995Z,98.09
2024-02-24T23:57:02.676Z,98.67
2024-02-24T23:59:29.291Z,98.21
